sensor_id;sensor_type;location;lat;lon;timestamp;P1;durP1;ratioP1;P2;durP2;ratioP2
70322;SDS011;57735;56.264;43.898;2023-11-21T00:01:15;10.18;;;3.85;;
70322;SDS011;57735;56.264;43.898;2023-11-21T00:03:47;9.48;;;4.28;;
70322;SDS011;57735;56.264;43.898;2023-11-21T00:06:18;12.02;;;4.28;;
70322;SDS011;57735;56.264;43.898;2023-11-21T00:08:50;10.30;;;4.03;;
70322;SDS011;57735;56.264;43.898;2023-11-21T00:11:24;13.23;;;4.22;;
70322;SDS011;57735;56.264;43.898;2023-11-21T00:13:58;10.57;;;4.20;;
70322;SDS011;57735;56.264;43.898;2023-11-21T00:16:28;8.50;;;4.03;;
70322;SDS011;57735;56.264;43.898;2023-11-21T00:18:59;9.20;;;3.35;;
70322;SDS011;57735;56.264;43.898;2023-11-21T00:21:30;11.85;;;4.28;;
70322;SDS011;57735;56.264;43.898;2023-11-21T00:24:04;10.73;;;4.13;;
70322;SDS011;57735;56.264;43.898;2023-11-21T00:26:35;11.57;;;4.65;;
70322;SDS011;57735;56.264;43.898;2023-11-21T00:29:08;14.27;;;4.57;;
70322;SDS011;57735;56.264;43.898;2023-11-21T00:31:38;12.02;;;4.13;;
70322;SDS011;57735;56.264;43.898;2023-11-21T00:34:10;12.10;;;4.18;;
70322;SDS011;57735;56.264;43.898;2023-11-21T00:36:42;8.73;;;4.13;;
70322;SDS011;57735;56.264;43.898;2023-11-21T00:39:12;11.40;;;3.75;;
70322;SDS011;57735;56.264;43.898;2023-11-21T00:41:44;8.13;;;4.05;;
70322;SDS011;57735;56.264;43.898;2023-11-21T00:44:15;9.85;;;3.97;;
70322;SDS011;57735;56.264;43.898;2023-11-21T00:46:46;11.10;;;3.88;;
70322;SDS011;57735;56.264;43.898;2023-11-21T00:49:19;9.60;;;3.60;;
70322;SDS011;57735;56.264;43.898;2023-11-21T00:51:51;8.70;;;3.75;;
70322;SDS011;57735;56.264;43.898;2023-11-21T00:54:22;15.68;;;4.38;;
70322;SDS011;57735;56.264;43.898;2023-11-21T00:56:56;9.48;;;4.60;;
70322;SDS011;57735;56.264;43.898;2023-11-21T00:59:27;9.73;;;3.83;;
70322;SDS011;57735;56.264;43.898;2023-11-21T01:01:57;10.15;;;3.97;;
70322;SDS011;57735;56.264;43.898;2023-11-21T01:04:30;10.57;;;4.38;;
70322;SDS011;57735;56.264;43.898;2023-11-21T01:07:02;11.93;;;3.88;;
70322;SDS011;57735;56.264;43.898;2023-11-21T01:09:38;9.30;;;4.05;;
70322;SDS011;57735;56.264;43.898;2023-11-21T01:12:09;8.77;;;3.70;;
70322;SDS011;57735;56.264;43.898;2023-11-21T01:14:40;7.03;;;3.33;;
70322;SDS011;57735;56.264;43.898;2023-11-21T01:17:11;11.48;;;4.55;;
70322;SDS011;57735;56.264;43.898;2023-11-21T01:19:45;7.70;;;3.50;;
70322;SDS011;57735;56.264;43.898;2023-11-21T01:22:16;11.85;;;3.75;;
70322;SDS011;57735;56.264;43.898;2023-11-21T01:24:47;9.25;;;3.42;;
70322;SDS011;57735;56.264;43.898;2023-11-21T01:27:17;9.57;;;3.90;;
70322;SDS011;57735;56.264;43.898;2023-11-21T01:29:48;8.02;;;4.30;;
70322;SDS011;57735;56.264;43.898;2023-11-21T01:32:21;9.80;;;3.65;;
70322;SDS011;57735;56.264;43.898;2023-11-21T01:34:52;8.27;;;3.88;;
70322;SDS011;57735;56.264;43.898;2023-11-21T01:37:26;9.07;;;3.70;;
70322;SDS011;57735;56.264;43.898;2023-11-21T01:39:58;7.70;;;3.83;;
70322;SDS011;57735;56.264;43.898;2023-11-21T01:42:29;9.75;;;3.70;;
70322;SDS011;57735;56.264;43.898;2023-11-21T01:45:03;7.65;;;3.60;;
70322;SDS011;57735;56.264;43.898;2023-11-21T01:47:36;5.78;;;2.40;;
70322;SDS011;57735;56.264;43.898;2023-11-21T01:50:14;9.20;;;3.47;;
70322;SDS011;57735;56.264;43.898;2023-11-21T01:52:47;15.27;;;4.05;;
70322;SDS011;57735;56.264;43.898;2023-11-21T01:55:19;8.05;;;3.88;;
70322;SDS011;57735;56.264;43.898;2023-11-21T01:57:50;8.02;;;4.53;;
70322;SDS011;57735;56.264;43.898;2023-11-21T02:00:21;10.27;;;4.72;;
70322;SDS011;57735;56.264;43.898;2023-11-21T02:02:54;10.13;;;4.07;;
70322;SDS011;57735;56.264;43.898;2023-11-21T02:05:25;8.10;;;3.30;;
70322;SDS011;57735;56.264;43.898;2023-11-21T02:07:56;7.35;;;3.20;;
70322;SDS011;57735;56.264;43.898;2023-11-21T02:10:27;8.00;;;3.50;;
70322;SDS011;57735;56.264;43.898;2023-11-21T02:12:58;9.27;;;3.60;;
70322;SDS011;57735;56.264;43.898;2023-11-21T02:15:33;9.02;;;3.88;;
70322;SDS011;57735;56.264;43.898;2023-11-21T02:18:06;9.15;;;3.88;;
70322;SDS011;57735;56.264;43.898;2023-11-21T02:20:40;7.88;;;3.35;;
70322;SDS011;57735;56.264;43.898;2023-11-21T02:23:13;9.32;;;4.05;;
70322;SDS011;57735;56.264;43.898;2023-11-21T02:25:44;8.13;;;4.20;;
70322;SDS011;57735;56.264;43.898;2023-11-21T02:28:17;7.68;;;3.17;;
70322;SDS011;57735;56.264;43.898;2023-11-21T02:30:55;11.55;;;5.18;;
70322;SDS011;57735;56.264;43.898;2023-11-21T02:33:28;11.35;;;4.60;;
70322;SDS011;57735;56.264;43.898;2023-11-21T02:36:01;15.10;;;4.63;;
70322;SDS011;57735;56.264;43.898;2023-11-21T02:38:33;8.73;;;4.20;;
70322;SDS011;57735;56.264;43.898;2023-11-21T02:41:06;9.00;;;4.03;;
70322;SDS011;57735;56.264;43.898;2023-11-21T02:43:36;9.52;;;4.63;;
70322;SDS011;57735;56.264;43.898;2023-11-21T02:46:10;7.78;;;3.05;;
70322;SDS011;57735;56.264;43.898;2023-11-21T02:48:41;9.80;;;4.72;;
70322;SDS011;57735;56.264;43.898;2023-11-21T02:51:12;10.85;;;4.30;;
70322;SDS011;57735;56.264;43.898;2023-11-21T02:53:43;8.98;;;3.67;;
70322;SDS011;57735;56.264;43.898;2023-11-21T02:56:14;13.88;;;4.85;;
70322;SDS011;57735;56.264;43.898;2023-11-21T02:58:45;13.38;;;4.45;;
70322;SDS011;57735;56.264;43.898;2023-11-21T03:01:16;5.25;;;2.83;;
70322;SDS011;57735;56.264;43.898;2023-11-21T03:03:47;12.40;;;5.03;;
70322;SDS011;57735;56.264;43.898;2023-11-21T03:06:21;11.52;;;4.13;;
70322;SDS011;57735;56.264;43.898;2023-11-21T03:08:52;10.25;;;4.97;;
70322;SDS011;57735;56.264;43.898;2023-11-21T03:11:26;9.57;;;4.50;;
70322;SDS011;57735;56.264;43.898;2023-11-21T03:13:57;10.40;;;4.63;;
70322;SDS011;57735;56.264;43.898;2023-11-21T03:16:27;12.52;;;4.55;;
70322;SDS011;57735;56.264;43.898;2023-11-21T03:18:59;10.73;;;4.15;;
70322;SDS011;57735;56.264;43.898;2023-11-21T03:21:30;12.32;;;4.60;;
70322;SDS011;57735;56.264;43.898;2023-11-21T03:24:01;11.57;;;4.50;;
70322;SDS011;57735;56.264;43.898;2023-11-21T03:26:32;9.43;;;4.43;;
70322;SDS011;57735;56.264;43.898;2023-11-21T03:29:02;11.93;;;4.82;;
70322;SDS011;57735;56.264;43.898;2023-11-21T03:31:35;9.75;;;3.70;;
70322;SDS011;57735;56.264;43.898;2023-11-21T03:34:06;14.82;;;3.88;;
70322;SDS011;57735;56.264;43.898;2023-11-21T03:36:41;11.95;;;4.88;;
70322;SDS011;57735;56.264;43.898;2023-11-21T03:39:12;13.55;;;5.25;;
70322;SDS011;57735;56.264;43.898;2023-11-21T03:41:43;13.13;;;5.38;;
70322;SDS011;57735;56.264;43.898;2023-11-21T03:44:14;9.15;;;3.38;;
70322;SDS011;57735;56.264;43.898;2023-11-21T03:46:45;11.75;;;5.60;;
70322;SDS011;57735;56.264;43.898;2023-11-21T03:49:18;7.85;;;3.67;;
70322;SDS011;57735;56.264;43.898;2023-11-21T03:51:49;10.65;;;4.22;;
70322;SDS011;57735;56.264;43.898;2023-11-21T03:54:22;15.45;;;5.00;;
70322;SDS011;57735;56.264;43.898;2023-11-21T03:56:53;10.05;;;4.53;;
70322;SDS011;57735;56.264;43.898;2023-11-21T03:59:24;13.93;;;4.32;;
70322;SDS011;57735;56.264;43.898;2023-11-21T04:01:57;11.55;;;4.72;;
70322;SDS011;57735;56.264;43.898;2023-11-21T04:04:28;9.63;;;3.63;;
70322;SDS011;57735;56.264;43.898;2023-11-21T04:06:59;11.15;;;4.75;;
70322;SDS011;57735;56.264;43.898;2023-11-21T04:09:30;10.25;;;4.47;;
70322;SDS011;57735;56.264;43.898;2023-11-21T04:12:00;10.38;;;4.60;;
70322;SDS011;57735;56.264;43.898;2023-11-21T04:14:31;21.15;;;5.10;;
70322;SDS011;57735;56.264;43.898;2023-11-21T04:17:02;9.13;;;3.72;;
70322;SDS011;57735;56.264;43.898;2023-11-21T04:19:34;11.63;;;4.45;;
70322;SDS011;57735;56.264;43.898;2023-11-21T04:22:05;11.48;;;4.82;;
70322;SDS011;57735;56.264;43.898;2023-11-21T04:24:36;13.98;;;4.50;;
70322;SDS011;57735;56.264;43.898;2023-11-21T04:27:06;11.98;;;4.80;;
70322;SDS011;57735;56.264;43.898;2023-11-21T04:29:38;10.07;;;4.80;;
70322;SDS011;57735;56.264;43.898;2023-11-21T04:32:09;21.23;;;5.50;;
70322;SDS011;57735;56.264;43.898;2023-11-21T04:34:40;10.05;;;4.53;;
70322;SDS011;57735;56.264;43.898;2023-11-21T04:37:10;16.98;;;5.28;;
70322;SDS011;57735;56.264;43.898;2023-11-21T04:39:42;17.17;;;5.68;;
70322;SDS011;57735;56.264;43.898;2023-11-21T04:42:12;12.07;;;5.13;;
70322;SDS011;57735;56.264;43.898;2023-11-21T04:44:43;14.68;;;4.95;;
70322;SDS011;57735;56.264;43.898;2023-11-21T04:47:15;15.43;;;5.75;;
70322;SDS011;57735;56.264;43.898;2023-11-21T04:52:22;11.32;;;4.65;;
70322;SDS011;57735;56.264;43.898;2023-11-21T04:54:53;17.10;;;5.05;;
70322;SDS011;57735;56.264;43.898;2023-11-21T04:57:24;10.05;;;4.30;;
70322;SDS011;57735;56.264;43.898;2023-11-21T04:59:55;16.00;;;5.88;;
70322;SDS011;57735;56.264;43.898;2023-11-21T05:02:31;13.52;;;5.22;;
70322;SDS011;57735;56.264;43.898;2023-11-21T05:05:04;7.18;;;3.67;;
70322;SDS011;57735;56.264;43.898;2023-11-21T05:07:36;13.13;;;4.40;;
70322;SDS011;57735;56.264;43.898;2023-11-21T05:10:08;10.75;;;4.40;;
70322;SDS011;57735;56.264;43.898;2023-11-21T05:12:42;13.65;;;5.75;;
70322;SDS011;57735;56.264;43.898;2023-11-21T05:15:14;12.13;;;4.95;;
70322;SDS011;57735;56.264;43.898;2023-11-21T05:17:46;17.33;;;5.97;;
70322;SDS011;57735;56.264;43.898;2023-11-21T05:20:19;20.20;;;6.28;;
70322;SDS011;57735;56.264;43.898;2023-11-21T05:22:54;11.88;;;4.80;;
70322;SDS011;57735;56.264;43.898;2023-11-21T05:25:24;10.38;;;4.65;;
70322;SDS011;57735;56.264;43.898;2023-11-21T05:27:55;12.73;;;5.18;;
70322;SDS011;57735;56.264;43.898;2023-11-21T05:30:26;12.98;;;5.50;;
70322;SDS011;57735;56.264;43.898;2023-11-21T05:32:57;15.35;;;5.47;;
70322;SDS011;57735;56.264;43.898;2023-11-21T05:35:31;15.88;;;6.25;;
70322;SDS011;57735;56.264;43.898;2023-11-21T05:38:06;12.73;;;5.28;;
70322;SDS011;57735;56.264;43.898;2023-11-21T05:40:37;12.95;;;4.80;;
70322;SDS011;57735;56.264;43.898;2023-11-21T05:43:07;8.07;;;4.38;;
70322;SDS011;57735;56.264;43.898;2023-11-21T05:45:42;11.13;;;4.88;;
70322;SDS011;57735;56.264;43.898;2023-11-21T05:48:13;10.27;;;4.75;;
70322;SDS011;57735;56.264;43.898;2023-11-21T05:50:46;12.02;;;4.93;;
70322;SDS011;57735;56.264;43.898;2023-11-21T05:53:18;9.00;;;4.47;;
70322;SDS011;57735;56.264;43.898;2023-11-21T05:55:49;9.45;;;4.18;;
70322;SDS011;57735;56.264;43.898;2023-11-21T05:58:23;10.80;;;4.68;;
70322;SDS011;57735;56.264;43.898;2023-11-21T06:00:54;11.18;;;4.82;;
70322;SDS011;57735;56.264;43.898;2023-11-21T06:03:25;12.18;;;4.85;;
70322;SDS011;57735;56.264;43.898;2023-11-21T06:05:56;10.38;;;4.72;;
70322;SDS011;57735;56.264;43.898;2023-11-21T06:08:27;12.88;;;4.78;;
70322;SDS011;57735;56.264;43.898;2023-11-21T06:10:58;19.92;;;7.70;;
70322;SDS011;57735;56.264;43.898;2023-11-21T06:13:29;13.80;;;6.07;;
70322;SDS011;57735;56.264;43.898;2023-11-21T06:16:00;12.88;;;5.72;;
70322;SDS011;57735;56.264;43.898;2023-11-21T06:18:31;18.50;;;5.95;;
70322;SDS011;57735;56.264;43.898;2023-11-21T06:21:02;14.98;;;5.13;;
70322;SDS011;57735;56.264;43.898;2023-11-21T06:23:34;15.23;;;6.07;;
70322;SDS011;57735;56.264;43.898;2023-11-21T06:26:05;18.17;;;7.45;;
70322;SDS011;57735;56.264;43.898;2023-11-21T06:28:36;16.73;;;6.07;;
70322;SDS011;57735;56.264;43.898;2023-11-21T06:31:07;14.15;;;5.75;;
70322;SDS011;57735;56.264;43.898;2023-11-21T06:33:38;15.70;;;5.85;;
70322;SDS011;57735;56.264;43.898;2023-11-21T06:36:09;15.32;;;5.68;;
70322;SDS011;57735;56.264;43.898;2023-11-21T06:38:41;15.00;;;5.80;;
70322;SDS011;57735;56.264;43.898;2023-11-21T06:41:14;12.50;;;5.68;;
70322;SDS011;57735;56.264;43.898;2023-11-21T06:43:50;11.57;;;5.20;;
70322;SDS011;57735;56.264;43.898;2023-11-21T06:46:25;12.38;;;5.13;;
70322;SDS011;57735;56.264;43.898;2023-11-21T06:48:56;18.30;;;6.90;;
70322;SDS011;57735;56.264;43.898;2023-11-21T06:51:26;10.82;;;4.07;;
70322;SDS011;57735;56.264;43.898;2023-11-21T06:53:57;18.55;;;6.05;;
70322;SDS011;57735;56.264;43.898;2023-11-21T06:56:28;12.95;;;5.43;;
70322;SDS011;57735;56.264;43.898;2023-11-21T06:58:59;12.63;;;4.93;;
70322;SDS011;57735;56.264;43.898;2023-11-21T07:01:30;15.55;;;5.28;;
70322;SDS011;57735;56.264;43.898;2023-11-21T07:04:03;11.25;;;4.30;;
70322;SDS011;57735;56.264;43.898;2023-11-21T07:06:37;10.90;;;4.50;;
70322;SDS011;57735;56.264;43.898;2023-11-21T07:09:08;8.57;;;4.25;;
70322;SDS011;57735;56.264;43.898;2023-11-21T07:11:39;11.95;;;5.03;;
70322;SDS011;57735;56.264;43.898;2023-11-21T07:14:10;10.23;;;4.40;;
70322;SDS011;57735;56.264;43.898;2023-11-21T07:16:42;13.30;;;4.50;;
70322;SDS011;57735;56.264;43.898;2023-11-21T07:19:14;12.25;;;5.30;;
70322;SDS011;57735;56.264;43.898;2023-11-21T07:21:48;13.75;;;6.40;;
70322;SDS011;57735;56.264;43.898;2023-11-21T07:24:22;15.85;;;5.18;;
70322;SDS011;57735;56.264;43.898;2023-11-21T07:26:53;11.45;;;4.47;;
70322;SDS011;57735;56.264;43.898;2023-11-21T07:29:26;13.32;;;5.93;;
70322;SDS011;57735;56.264;43.898;2023-11-21T07:31:59;16.23;;;5.10;;
70322;SDS011;57735;56.264;43.898;2023-11-21T07:34:31;13.60;;;5.45;;
70322;SDS011;57735;56.264;43.898;2023-11-21T07:37:02;11.35;;;4.53;;
70322;SDS011;57735;56.264;43.898;2023-11-21T07:39:33;9.32;;;4.28;;
70322;SDS011;57735;56.264;43.898;2023-11-21T07:42:04;10.27;;;4.45;;
70322;SDS011;57735;56.264;43.898;2023-11-21T07:44:35;10.95;;;4.45;;
70322;SDS011;57735;56.264;43.898;2023-11-21T07:47:06;12.32;;;4.60;;
70322;SDS011;57735;56.264;43.898;2023-11-21T07:49:37;19.00;;;6.15;;
70322;SDS011;57735;56.264;43.898;2023-11-21T07:52:07;16.25;;;5.30;;
70322;SDS011;57735;56.264;43.898;2023-11-21T07:54:40;10.52;;;4.28;;
70322;SDS011;57735;56.264;43.898;2023-11-21T07:57:12;13.73;;;5.97;;
70322;SDS011;57735;56.264;43.898;2023-11-21T07:59:43;15.40;;;5.72;;
70322;SDS011;57735;56.264;43.898;2023-11-21T08:02:14;20.50;;;6.93;;
70322;SDS011;57735;56.264;43.898;2023-11-21T08:04:47;18.65;;;7.50;;
70322;SDS011;57735;56.264;43.898;2023-11-21T08:07:21;20.63;;;6.85;;
70322;SDS011;57735;56.264;43.898;2023-11-21T08:09:54;24.25;;;8.55;;
70322;SDS011;57735;56.264;43.898;2023-11-21T08:12:27;22.08;;;6.93;;
70322;SDS011;57735;56.264;43.898;2023-11-21T08:15:00;24.30;;;8.48;;
70322;SDS011;57735;56.264;43.898;2023-11-21T08:17:34;44.40;;;9.68;;
70322;SDS011;57735;56.264;43.898;2023-11-21T08:20:05;21.55;;;7.50;;
70322;SDS011;57735;56.264;43.898;2023-11-21T08:22:38;21.02;;;8.57;;
70322;SDS011;57735;56.264;43.898;2023-11-21T08:25:13;18.80;;;7.22;;
70322;SDS011;57735;56.264;43.898;2023-11-21T08:27:44;18.92;;;6.60;;
70322;SDS011;57735;56.264;43.898;2023-11-21T08:30:15;20.52;;;7.90;;
70322;SDS011;57735;56.264;43.898;2023-11-21T08:32:47;19.38;;;7.90;;
70322;SDS011;57735;56.264;43.898;2023-11-21T08:35:19;25.08;;;8.00;;
70322;SDS011;57735;56.264;43.898;2023-11-21T08:37:52;15.82;;;6.55;;
70322;SDS011;57735;56.264;43.898;2023-11-21T08:40:25;25.10;;;7.95;;
70322;SDS011;57735;56.264;43.898;2023-11-21T08:42:57;20.05;;;7.82;;
70322;SDS011;57735;56.264;43.898;2023-11-21T08:45:31;19.23;;;6.50;;
70322;SDS011;57735;56.264;43.898;2023-11-21T08:48:06;18.77;;;6.55;;
70322;SDS011;57735;56.264;43.898;2023-11-21T08:50:39;20.52;;;7.30;;
70322;SDS011;57735;56.264;43.898;2023-11-21T08:53:11;16.50;;;6.78;;
70322;SDS011;57735;56.264;43.898;2023-11-21T08:55:42;14.98;;;5.85;;
70322;SDS011;57735;56.264;43.898;2023-11-21T08:58:14;17.17;;;6.60;;
70322;SDS011;57735;56.264;43.898;2023-11-21T09:00:46;22.13;;;6.75;;
70322;SDS011;57735;56.264;43.898;2023-11-21T09:03:17;12.68;;;5.15;;
70322;SDS011;57735;56.264;43.898;2023-11-21T09:05:47;18.27;;;6.90;;
70322;SDS011;57735;56.264;43.898;2023-11-21T09:08:18;17.00;;;6.05;;
70322;SDS011;57735;56.264;43.898;2023-11-21T09:10:49;15.13;;;5.03;;
70322;SDS011;57735;56.264;43.898;2023-11-21T09:13:20;16.52;;;5.47;;
70322;SDS011;57735;56.264;43.898;2023-11-21T09:15:51;15.05;;;5.80;;
70322;SDS011;57735;56.264;43.898;2023-11-21T09:18:22;22.42;;;6.75;;
70322;SDS011;57735;56.264;43.898;2023-11-21T09:20:53;12.95;;;5.22;;
70322;SDS011;57735;56.264;43.898;2023-11-21T09:23:24;15.15;;;5.93;;
70322;SDS011;57735;56.264;43.898;2023-11-21T09:25:55;21.10;;;5.20;;
70322;SDS011;57735;56.264;43.898;2023-11-21T09:28:27;16.83;;;5.25;;
70322;SDS011;57735;56.264;43.898;2023-11-21T09:31:05;14.65;;;5.38;;
70322;SDS011;57735;56.264;43.898;2023-11-21T09:33:41;13.43;;;5.70;;
70322;SDS011;57735;56.264;43.898;2023-11-21T09:36:17;16.10;;;6.45;;
70322;SDS011;57735;56.264;43.898;2023-11-21T09:38:52;19.85;;;6.65;;
70322;SDS011;57735;56.264;43.898;2023-11-21T09:41:49;12.57;;;5.57;;
70322;SDS011;57735;56.264;43.898;2023-11-21T09:44:20;9.13;;;3.83;;
70322;SDS011;57735;56.264;43.898;2023-11-21T09:47:03;14.82;;;5.03;;
70322;SDS011;57735;56.264;43.898;2023-11-21T09:49:35;14.25;;;4.47;;
70322;SDS011;57735;56.264;43.898;2023-11-21T09:52:07;24.95;;;5.47;;
70322;SDS011;57735;56.264;43.898;2023-11-21T09:54:45;8.93;;;4.35;;
70322;SDS011;57735;56.264;43.898;2023-11-21T09:57:18;17.75;;;5.68;;
70322;SDS011;57735;56.264;43.898;2023-11-21T09:59:52;15.70;;;5.38;;
70322;SDS011;57735;56.264;43.898;2023-11-21T10:02:29;9.88;;;3.97;;
70322;SDS011;57735;56.264;43.898;2023-11-21T10:05:03;12.80;;;4.97;;
70322;SDS011;57735;56.264;43.898;2023-11-21T10:07:36;9.77;;;5.23;;
70322;SDS011;57735;56.264;43.898;2023-11-21T10:10:09;17.20;;;5.03;;
70322;SDS011;57735;56.264;43.898;2023-11-21T10:12:42;11.98;;;4.88;;
70322;SDS011;57735;56.264;43.898;2023-11-21T10:15:17;14.25;;;5.18;;
70322;SDS011;57735;56.264;43.898;2023-11-21T10:17:49;11.98;;;4.93;;
70322;SDS011;57735;56.264;43.898;2023-11-21T10:20:20;12.98;;;5.80;;
70322;SDS011;57735;56.264;43.898;2023-11-21T10:22:52;14.80;;;5.43;;
70322;SDS011;57735;56.264;43.898;2023-11-21T10:25:23;13.73;;;5.72;;
70322;SDS011;57735;56.264;43.898;2023-11-21T10:27:59;13.85;;;5.50;;
70322;SDS011;57735;56.264;43.898;2023-11-21T10:30:38;15.70;;;5.70;;
70322;SDS011;57735;56.264;43.898;2023-11-21T10:33:10;14.95;;;5.65;;
70322;SDS011;57735;56.264;43.898;2023-11-21T10:38:24;9.60;;;4.70;;
70322;SDS011;57735;56.264;43.898;2023-11-21T10:40:57;13.57;;;4.63;;
70322;SDS011;57735;56.264;43.898;2023-11-21T10:43:30;15.77;;;5.75;;
70322;SDS011;57735;56.264;43.898;2023-11-21T10:46:03;16.45;;;6.35;;
70322;SDS011;57735;56.264;43.898;2023-11-21T10:48:36;11.75;;;5.28;;
70322;SDS011;57735;56.264;43.898;2023-11-21T10:51:12;15.07;;;5.22;;
70322;SDS011;57735;56.264;43.898;2023-11-21T10:53:42;12.73;;;4.97;;
70322;SDS011;57735;56.264;43.898;2023-11-21T10:56:14;13.25;;;5.25;;
70322;SDS011;57735;56.264;43.898;2023-11-21T10:58:48;15.52;;;4.78;;
70322;SDS011;57735;56.264;43.898;2023-11-21T11:01:21;13.70;;;5.45;;
70322;SDS011;57735;56.264;43.898;2023-11-21T11:06:27;12.07;;;4.72;;
70322;SDS011;57735;56.264;43.898;2023-11-21T11:08:59;12.23;;;5.13;;
70322;SDS011;57735;56.264;43.898;2023-11-21T11:11:32;11.48;;;5.20;;
70322;SDS011;57735;56.264;43.898;2023-11-21T11:14:03;16.58;;;6.28;;
70322;SDS011;57735;56.264;43.898;2023-11-21T11:16:40;20.42;;;7.13;;
70322;SDS011;57735;56.264;43.898;2023-11-21T11:19:14;12.65;;;5.53;;
70322;SDS011;57735;56.264;43.898;2023-11-21T11:36:06;14.15;;;5.55;;
70322;SDS011;57735;56.264;43.898;2023-11-21T11:38:58;16.38;;;5.57;;
70322;SDS011;57735;56.264;43.898;2023-11-21T11:41:32;12.93;;;5.13;;
70322;SDS011;57735;56.264;43.898;2023-11-21T11:44:08;20.67;;;5.85;;
70322;SDS011;57735;56.264;43.898;2023-11-21T11:47:28;14.40;;;5.35;;
70322;SDS011;57735;56.264;43.898;2023-11-21T11:50:11;13.75;;;5.50;;
70322;SDS011;57735;56.264;43.898;2023-11-21T11:52:55;14.68;;;6.10;;
70322;SDS011;57735;56.264;43.898;2023-11-21T11:55:44;18.92;;;5.82;;
70322;SDS011;57735;56.264;43.898;2023-11-21T11:58:15;12.65;;;5.20;;
70322;SDS011;57735;56.264;43.898;2023-11-21T12:00:47;12.57;;;5.20;;
70322;SDS011;57735;56.264;43.898;2023-11-21T12:03:22;14.90;;;4.68;;
70322;SDS011;57735;56.264;43.898;2023-11-21T12:05:53;17.23;;;5.63;;
70322;SDS011;57735;56.264;43.898;2023-11-21T12:08:28;21.58;;;5.93;;
70322;SDS011;57735;56.264;43.898;2023-11-21T12:11:06;14.60;;;5.72;;
70322;SDS011;57735;56.264;43.898;2023-11-21T12:13:37;12.00;;;5.45;;
70322;SDS011;57735;56.264;43.898;2023-11-21T12:16:09;21.02;;;6.40;;
70322;SDS011;57735;56.264;43.898;2023-11-21T12:18:41;18.05;;;5.60;;
70322;SDS011;57735;56.264;43.898;2023-11-21T12:21:12;15.50;;;4.85;;
70322;SDS011;57735;56.264;43.898;2023-11-21T12:23:44;15.25;;;5.53;;
70322;SDS011;57735;56.264;43.898;2023-11-21T12:26:18;14.43;;;5.45;;
70322;SDS011;57735;56.264;43.898;2023-11-21T12:28:54;15.13;;;4.60;;
70322;SDS011;57735;56.264;43.898;2023-11-21T12:31:28;12.25;;;5.13;;
70322;SDS011;57735;56.264;43.898;2023-11-21T12:33:59;24.80;;;6.93;;
70322;SDS011;57735;56.264;43.898;2023-11-21T12:36:31;15.75;;;5.28;;
70322;SDS011;57735;56.264;43.898;2023-11-21T12:39:02;9.30;;;4.13;;
70322;SDS011;57735;56.264;43.898;2023-11-21T12:41:33;6.63;;;3.47;;
70322;SDS011;57735;56.264;43.898;2023-11-21T12:44:09;10.65;;;4.35;;
70322;SDS011;57735;56.264;43.898;2023-11-21T12:46:42;12.45;;;5.15;;
70322;SDS011;57735;56.264;43.898;2023-11-21T12:49:15;13.60;;;5.28;;
70322;SDS011;57735;56.264;43.898;2023-11-21T12:51:48;16.17;;;6.18;;
70322;SDS011;57735;56.264;43.898;2023-11-21T12:54:19;12.65;;;4.82;;
70322;SDS011;57735;56.264;43.898;2023-11-21T12:56:50;7.22;;;3.40;;
70322;SDS011;57735;56.264;43.898;2023-11-21T12:59:22;7.93;;;3.67;;
70322;SDS011;57735;56.264;43.898;2023-11-21T13:01:54;8.98;;;4.05;;
70322;SDS011;57735;56.264;43.898;2023-11-21T13:04:29;11.73;;;4.80;;
70322;SDS011;57735;56.264;43.898;2023-11-21T13:07:06;13.35;;;4.97;;
70322;SDS011;57735;56.264;43.898;2023-11-21T13:09:45;11.70;;;4.32;;
70322;SDS011;57735;56.264;43.898;2023-11-21T13:12:16;13.73;;;5.10;;
70322;SDS011;57735;56.264;43.898;2023-11-21T13:14:49;9.57;;;4.18;;
70322;SDS011;57735;56.264;43.898;2023-11-21T13:17:20;21.10;;;5.75;;
70322;SDS011;57735;56.264;43.898;2023-11-21T13:19:54;17.17;;;5.80;;
70322;SDS011;57735;56.264;43.898;2023-11-21T13:22:31;18.15;;;6.60;;
70322;SDS011;57735;56.264;43.898;2023-11-21T13:25:04;18.92;;;6.25;;
70322;SDS011;57735;56.264;43.898;2023-11-21T13:27:37;14.02;;;6.28;;
70322;SDS011;57735;56.264;43.898;2023-11-21T13:30:09;31.85;;;9.13;;
70322;SDS011;57735;56.264;43.898;2023-11-21T13:33:03;18.80;;;6.65;;
70322;SDS011;57735;56.264;43.898;2023-11-21T13:35:38;21.20;;;6.60;;
70322;SDS011;57735;56.264;43.898;2023-11-21T13:38:14;11.10;;;4.57;;
70322;SDS011;57735;56.264;43.898;2023-11-21T13:40:53;18.30;;;5.90;;
70322;SDS011;57735;56.264;43.898;2023-11-21T13:43:26;10.68;;;4.43;;
70322;SDS011;57735;56.264;43.898;2023-11-21T13:45:59;7.53;;;3.65;;
70322;SDS011;57735;56.264;43.898;2023-11-21T13:48:33;9.38;;;3.75;;
70322;SDS011;57735;56.264;43.898;2023-11-21T13:51:24;10.25;;;4.30;;
70322;SDS011;57735;56.264;43.898;2023-11-21T13:54:16;10.65;;;3.80;;
70322;SDS011;57735;56.264;43.898;2023-11-21T13:56:47;14.38;;;4.32;;
70322;SDS011;57735;56.264;43.898;2023-11-21T13:59:19;13.73;;;5.20;;
70322;SDS011;57735;56.264;43.898;2023-11-21T14:02:00;6.88;;;3.42;;
70322;SDS011;57735;56.264;43.898;2023-11-21T14:04:46;12.85;;;4.55;;
70322;SDS011;57735;56.264;43.898;2023-11-21T14:07:25;9.88;;;4.28;;
70322;SDS011;57735;56.264;43.898;2023-11-21T14:10:08;17.02;;;5.47;;
70322;SDS011;57735;56.264;43.898;2023-11-21T14:12:44;14.32;;;5.20;;
70322;SDS011;57735;56.264;43.898;2023-11-21T14:15:17;14.27;;;5.70;;
70322;SDS011;57735;56.264;43.898;2023-11-21T14:17:49;11.55;;;4.78;;
70322;SDS011;57735;56.264;43.898;2023-11-21T14:20:20;13.45;;;4.68;;
70322;SDS011;57735;56.264;43.898;2023-11-21T14:22:51;12.35;;;5.05;;
70322;SDS011;57735;56.264;43.898;2023-11-21T14:25:22;15.82;;;6.90;;
70322;SDS011;57735;56.264;43.898;2023-11-21T14:27:53;11.65;;;5.57;;
70322;SDS011;57735;56.264;43.898;2023-11-21T14:30:27;12.37;;;5.63;;
70322;SDS011;57735;56.264;43.898;2023-11-21T14:33:02;14.57;;;6.05;;
70322;SDS011;57735;56.264;43.898;2023-11-21T14:35:33;12.75;;;6.57;;
70322;SDS011;57735;56.264;43.898;2023-11-21T14:38:05;19.40;;;8.23;;
70322;SDS011;57735;56.264;43.898;2023-11-21T14:40:43;20.88;;;7.70;;
70322;SDS011;57735;56.264;43.898;2023-11-21T14:43:14;17.60;;;6.85;;
70322;SDS011;57735;56.264;43.898;2023-11-21T14:45:50;11.23;;;4.65;;
70322;SDS011;57735;56.264;43.898;2023-11-21T14:48:22;9.05;;;3.85;;
70322;SDS011;57735;56.264;43.898;2023-11-21T14:51:12;9.32;;;4.63;;
70322;SDS011;57735;56.264;43.898;2023-11-21T14:53:58;8.10;;;4.30;;
70322;SDS011;57735;56.264;43.898;2023-11-21T14:56:40;13.20;;;5.53;;
70322;SDS011;57735;56.264;43.898;2023-11-21T14:59:14;12.90;;;5.10;;
70322;SDS011;57735;56.264;43.898;2023-11-21T15:01:47;11.30;;;4.72;;
70322;SDS011;57735;56.264;43.898;2023-11-21T15:04:26;14.20;;;5.35;;
70322;SDS011;57735;56.264;43.898;2023-11-21T15:07:06;9.65;;;3.53;;
70322;SDS011;57735;56.264;43.898;2023-11-21T15:09:37;9.15;;;3.45;;
70322;SDS011;57735;56.264;43.898;2023-11-21T15:12:15;10.65;;;3.17;;
70322;SDS011;57735;56.264;43.898;2023-11-21T15:14:50;9.70;;;4.20;;
70322;SDS011;57735;56.264;43.898;2023-11-21T15:17:25;10.35;;;4.60;;
70322;SDS011;57735;56.264;43.898;2023-11-21T15:19:57;13.23;;;4.35;;